CheckWX is a tool to help pilots better visualize weather data.  It is not intended as a substitute for an official pre-flight weather briefing.

01:47:09 UTC

KMSL TAF
Northwest Alabama Regional Airport
Muscle Shoals, Alabama, USA
KMSL 152320Z 1600/1624 14007KT P6SM BKN022 OVC035 FM160600 18009G15KT P6SM BKN025 FM160900 19008G14KT P6SM BKN016 WS020/20040KT FM161600 19010G18KT P6SM VCSH OVC020 PROB30 1616/1620 4SM -SHRA OVC008 FM162000 19016G23KT P6SM VCSH BKN025 PROB30 1620/1624 3SM TSRA BKN020CB

Dec-16@
00:00 UTC

Dec-16 @ 00:00 UTC

Dec-16@
06:00 UTC

Dec-16 @ 06:00 UTC

KMSL 152320Z 1600/1624 14007KT P6SM BKN022 OVC035
Wind
  • 140° at 7 KTS
Cloud Levels
  • Broken at 2,200' AGL
  • Overcast at 3,500' AGL

Dec-16@
06:00 UTC

Dec-16 @ 06:00 UTC

Dec-16@
09:00 UTC

Dec-16 @ 09:00 UTC

FM160600 18009G15KT P6SM BKN025

From

From Standard forecast or significant change

Wind
  • 180° at 9 KTS
  • {Gusting to 15 KTS
Cloud Levels
  • Broken at 2,500' AGL

Dec-16@
09:00 UTC

Dec-16 @ 09:00 UTC

Dec-16@
16:00 UTC

Dec-16 @ 16:00 UTC

FM160900 19008G14KT P6SM BKN016 WS020/20040KT

From

From Standard forecast or significant change

Wind
  • 190° at 8 KTS
  • {Gusting to 14 KTS
Cloud Levels
  • Broken at 1,600' AGL

Dec-16@
16:00 UTC

Dec-16 @ 16:00 UTC

Dec-16@
20:00 UTC

Dec-16 @ 20:00 UTC

PROB30 1616/1620 4SM -SHRA OVC008

Probable - 30% Likelihood

Probable - 30% Likelihood during this time.

Conditions
Light Rain
Cloud Levels
  • Overcast at 800' AGL

Dec-16@
16:00 UTC

Dec-16 @ 16:00 UTC

Dec-16@
20:00 UTC

Dec-16 @ 20:00 UTC

FM161600 19010G18KT P6SM VCSH OVC020

From

From Standard forecast or significant change

Wind
  • 190° at 10 KTS
  • {Gusting to 18 KTS
Cloud Levels
  • Overcast at 2,000' AGL

Dec-16@
20:00 UTC

Dec-16 @ 20:00 UTC

Dec-17@
00:00 UTC

Dec-17 @ 00:00 UTC

PROB30 1620/1624 3SM TSRA BKN020CB

Probable - 30% Likelihood

Probable - 30% Likelihood during this time.

Conditions
Thunderstorm, Rain
Cloud Levels
  • Broken at 2,000' AGL

Dec-16@
20:00 UTC

Dec-16 @ 20:00 UTC

Dec-17@
00:00 UTC

Dec-17 @ 00:00 UTC

FM162000 19016G23KT P6SM VCSH BKN025

From

From Standard forecast or significant change

Wind
  • 190° at 16 KTS
  • {Gusting to 23 KTS
Cloud Levels
  • Broken at 2,500' AGL